sensor_id;sensor_type;location;lat;lon;timestamp;pressure;altitude;pressure_sealevel;temperature;humidity
9325;BME280;4701;51.566;6.776;2023-09-07T06:04:59;101655.88;;;19.26;80.38
9325;BME280;4701;51.566;6.776;2023-09-07T06:10:01;101667.22;;;19.25;80.09
9325;BME280;4701;51.566;6.776;2023-09-07T06:15:08;101675.53;;;19.25;80.28
9325;BME280;4701;51.566;6.776;2023-09-07T07:35:35;101689.63;;;19.88;82.36
9325;BME280;4701;51.566;6.776;2023-09-07T07:40:37;101692.50;;;19.97;82.57
9325;BME280;4701;51.566;6.776;2023-09-07T07:45:41;101693.09;;;20.08;82.54
9325;BME280;4701;51.566;6.776;2023-09-07T07:50:45;101696.47;;;20.18;82.53
9325;BME280;4701;51.566;6.776;2023-09-07T07:55:46;101690.22;;;20.26;82.71
9325;BME280;4701;51.566;6.776;2023-09-07T08:00:49;101696.69;;;20.35;82.71
9325;BME280;4701;51.566;6.776;2023-09-07T08:05:52;101689.53;;;20.48;82.72
9325;BME280;4701;51.566;6.776;2023-09-07T08:10:54;101692.88;;;20.59;83.00
9325;BME280;4701;51.566;6.776;2023-09-07T08:15:57;101693.28;;;20.66;82.88
9325;BME280;4701;51.566;6.776;2023-09-07T08:21:00;101683.72;;;20.72;83.14
9325;BME280;4701;51.566;6.776;2023-09-07T08:26:02;101685.22;;;20.78;83.25
9325;BME280;4701;51.566;6.776;2023-09-07T08:31:05;101679.25;;;20.85;83.44
9325;BME280;4701;51.566;6.776;2023-09-07T08:36:08;101676.91;;;20.92;83.37
9325;BME280;4701;51.566;6.776;2023-09-07T08:41:11;101682.81;;;20.99;83.63
9325;BME280;4701;51.566;6.776;2023-09-07T08:46:14;101685.13;;;21.05;83.89
9325;BME280;4701;51.566;6.776;2023-09-07T08:51:18;101681.09;;;21.11;83.94
9325;BME280;4701;51.566;6.776;2023-09-07T08:56:24;101677.59;;;21.20;84.07
9325;BME280;4701;51.566;6.776;2023-09-07T09:01:26;101668.88;;;21.26;84.00
9325;BME280;4701;51.566;6.776;2023-09-07T09:06:33;101665.63;;;21.33;84.19
9325;BME280;4701;51.566;6.776;2023-09-07T09:11:35;101663.53;;;21.38;83.88
9325;BME280;4701;51.566;6.776;2023-09-07T09:16:36;101661.13;;;21.45;84.29
9325;BME280;4701;51.566;6.776;2023-09-07T09:21:39;101667.03;;;21.52;84.11
9325;BME280;4701;51.566;6.776;2023-09-07T09:26:41;101665.78;;;21.59;84.10
9325;BME280;4701;51.566;6.776;2023-09-07T09:31:43;101663.38;;;21.66;84.06
9325;BME280;4701;51.566;6.776;2023-09-07T09:36:46;101662.91;;;21.72;83.91
9325;BME280;4701;51.566;6.776;2023-09-07T09:41:48;101654.94;;;21.79;84.04
9325;BME280;4701;51.566;6.776;2023-09-07T09:46:51;101647.78;;;21.87;84.16
9325;BME280;4701;51.566;6.776;2023-09-07T09:51:54;101647.34;;;21.94;83.80
9325;BME280;4701;51.566;6.776;2023-09-07T09:56:58;101648.53;;;22.01;83.56
9325;BME280;4701;51.566;6.776;2023-09-07T10:02:01;101646.09;;;22.08;83.41
9325;BME280;4701;51.566;6.776;2023-09-07T10:07:05;101637.28;;;22.15;83.17
9325;BME280;4701;51.566;6.776;2023-09-07T10:12:11;101644.31;;;22.21;82.73
9325;BME280;4701;51.566;6.776;2023-09-07T10:17:21;101629.63;;;22.29;82.63
9325;BME280;4701;51.566;6.776;2023-09-07T10:22:25;101627.69;;;22.38;82.66
9325;BME280;4701;51.566;6.776;2023-09-07T10:27:36;101625.59;;;22.44;82.44
9325;BME280;4701;51.566;6.776;2023-09-07T10:32:39;101614.50;;;22.52;82.26
9325;BME280;4701;51.566;6.776;2023-09-07T10:37:45;101606.16;;;22.61;82.63
9325;BME280;4701;51.566;6.776;2023-09-07T10:42:47;101602.56;;;22.69;82.40
9325;BME280;4701;51.566;6.776;2023-09-07T10:47:49;101601.75;;;22.77;82.60
9325;BME280;4701;51.566;6.776;2023-09-07T10:52:53;101598.97;;;22.86;82.38
9325;BME280;4701;51.566;6.776;2023-09-07T10:57:55;101598.47;;;22.92;81.32
9325;BME280;4701;51.566;6.776;2023-09-07T11:02:57;101596.00;;;22.99;81.26
9325;BME280;4701;51.566;6.776;2023-09-07T11:08:00;101594.69;;;23.06;80.26
9325;BME280;4701;51.566;6.776;2023-09-07T11:13:03;101582.25;;;23.12;79.74
9325;BME280;4701;51.566;6.776;2023-09-07T11:18:06;101580.59;;;23.19;79.78
9325;BME280;4701;51.566;6.776;2023-09-07T11:23:09;101578.94;;;23.27;79.69
9325;BME280;4701;51.566;6.776;2023-09-07T11:28:10;101573.34;;;23.35;79.99
9325;BME280;4701;51.566;6.776;2023-09-07T11:33:15;101570.53;;;23.44;80.07
9325;BME280;4701;51.566;6.776;2023-09-07T11:38:18;101565.28;;;23.51;79.30
9325;BME280;4701;51.566;6.776;2023-09-07T11:43:20;101564.75;;;23.58;79.56
9325;BME280;4701;51.566;6.776;2023-09-07T11:48:23;101565.03;;;23.65;79.71
9325;BME280;4701;51.566;6.776;2023-09-07T11:53:26;101555.38;;;23.71;79.28
9325;BME280;4701;51.566;6.776;2023-09-07T11:58:28;101553.38;;;23.80;79.44
9325;BME280;4701;51.566;6.776;2023-09-07T12:03:29;101550.84;;;23.87;79.56
9325;BME280;4701;51.566;6.776;2023-09-07T12:08:34;101550.81;;;23.96;79.08
9325;BME280;4701;51.566;6.776;2023-09-07T12:13:36;101542.06;;;24.06;78.91
9325;BME280;4701;51.566;6.776;2023-09-07T12:18:38;101542.81;;;24.15;78.66
9325;BME280;4701;51.566;6.776;2023-09-07T12:23:41;101532.78;;;24.23;79.26
9325;BME280;4701;51.566;6.776;2023-09-07T12:28:42;101532.72;;;24.31;79.22
9325;BME280;4701;51.566;6.776;2023-09-07T12:33:44;101520.69;;;24.39;78.84
9325;BME280;4701;51.566;6.776;2023-09-07T12:38:47;101512.91;;;24.45;78.59
9325;BME280;4701;51.566;6.776;2023-09-07T12:43:49;101518.41;;;24.54;78.95
9325;BME280;4701;51.566;6.776;2023-09-07T12:48:52;101516.38;;;24.63;78.57
9325;BME280;4701;51.566;6.776;2023-09-07T12:53:55;101508.25;;;24.70;78.07
9325;BME280;4701;51.566;6.776;2023-09-07T12:58:57;101511.75;;;24.79;77.90
9325;BME280;4701;51.566;6.776;2023-09-07T13:04:00;101497.72;;;24.87;77.55
9325;BME280;4701;51.566;6.776;2023-09-07T13:09:03;101490.13;;;24.97;77.07
9325;BME280;4701;51.566;6.776;2023-09-07T13:14:05;101482.47;;;25.06;76.72
9325;BME280;4701;51.566;6.776;2023-09-07T13:19:08;101485.16;;;25.14;76.96
9325;BME280;4701;51.566;6.776;2023-09-07T13:24:12;101475.72;;;25.19;76.31
9325;BME280;4701;51.566;6.776;2023-09-07T13:29:13;101475.16;;;25.25;76.42
9325;BME280;4701;51.566;6.776;2023-09-07T13:34:15;101460.97;;;25.31;75.52
9325;BME280;4701;51.566;6.776;2023-09-07T13:39:18;101467.03;;;25.33;74.51
9325;BME280;4701;51.566;6.776;2023-09-07T13:44:19;101462.59;;;25.32;73.90
9325;BME280;4701;51.566;6.776;2023-09-07T13:49:21;101459.81;;;25.32;73.54
9325;BME280;4701;51.566;6.776;2023-09-07T13:54:24;101455.88;;;25.33;72.95
9325;BME280;4701;51.566;6.776;2023-09-07T13:59:26;101455.03;;;25.32;72.32
9325;BME280;4701;51.566;6.776;2023-09-07T14:04:32;101451.66;;;25.39;72.55
9325;BME280;4701;51.566;6.776;2023-09-07T14:09:35;101451.41;;;25.44;72.61
9325;BME280;4701;51.566;6.776;2023-09-07T14:14:38;101448.88;;;25.51;72.48
9325;BME280;4701;51.566;6.776;2023-09-07T14:19:39;101453.88;;;25.57;72.87
9325;BME280;4701;51.566;6.776;2023-09-07T14:24:42;101453.66;;;25.62;72.99
9325;BME280;4701;51.566;6.776;2023-09-07T14:29:44;101445.88;;;25.68;72.95
9325;BME280;4701;51.566;6.776;2023-09-07T14:34:45;101441.19;;;25.72;73.25
9325;BME280;4701;51.566;6.776;2023-09-07T14:39:49;101441.41;;;25.79;73.90
9325;BME280;4701;51.566;6.776;2023-09-07T14:44:51;101446.75;;;25.84;73.59
9325;BME280;4701;51.566;6.776;2023-09-07T14:49:53;101442.06;;;25.88;73.57
9325;BME280;4701;51.566;6.776;2023-09-07T14:54:56;101447.03;;;25.95;74.10
9325;BME280;4701;51.566;6.776;2023-09-07T14:59:58;101433.66;;;26.00;73.46
9325;BME280;4701;51.566;6.776;2023-09-07T15:05:00;101429.91;;;26.09;74.11
9325;BME280;4701;51.566;6.776;2023-09-07T15:10:03;101436.06;;;26.14;74.20
9325;BME280;4701;51.566;6.776;2023-09-07T15:15:07;101429.84;;;26.21;73.87
9325;BME280;4701;51.566;6.776;2023-09-07T15:20:09;101424.88;;;26.26;73.77
9325;BME280;4701;51.566;6.776;2023-09-07T15:25:13;101425.75;;;26.30;73.58
9325;BME280;4701;51.566;6.776;2023-09-07T15:30:15;101421.91;;;26.35;74.13
9325;BME280;4701;51.566;6.776;2023-09-07T15:35:17;101422.81;;;26.39;73.28
9325;BME280;4701;51.566;6.776;2023-09-07T15:40:20;101410.91;;;26.42;73.61
9325;BME280;4701;51.566;6.776;2023-09-07T15:45:22;101413.78;;;26.46;73.37
9325;BME280;4701;51.566;6.776;2023-09-07T15:50:23;101414.25;;;26.48;73.37
9325;BME280;4701;51.566;6.776;2023-09-07T15:55:26;101404.72;;;26.49;73.27
9325;BME280;4701;51.566;6.776;2023-09-07T16:00:28;101407.16;;;26.50;73.29
9325;BME280;4701;51.566;6.776;2023-09-07T16:05:30;101399.94;;;26.49;72.73
9325;BME280;4701;51.566;6.776;2023-09-07T16:10:33;101393.53;;;26.49;73.10
9325;BME280;4701;51.566;6.776;2023-09-07T16:15:36;101395.84;;;26.47;72.55
9325;BME280;4701;51.566;6.776;2023-09-07T16:20:37;101397.41;;;26.44;72.12
9325;BME280;4701;51.566;6.776;2023-09-07T16:25:40;101380.53;;;26.41;71.78
9325;BME280;4701;51.566;6.776;2023-09-07T16:30:42;101392.06;;;26.39;71.50
9325;BME280;4701;51.566;6.776;2023-09-07T16:35:44;101391.59;;;26.37;71.56
9325;BME280;4701;51.566;6.776;2023-09-07T16:40:47;101397.09;;;26.33;71.39
9325;BME280;4701;51.566;6.776;2023-09-07T16:45:56;101392.22;;;26.30;71.40
9325;BME280;4701;51.566;6.776;2023-09-07T16:50:58;101389.78;;;26.29;71.11
9325;BME280;4701;51.566;6.776;2023-09-07T16:56:02;101393.31;;;26.26;71.10
9325;BME280;4701;51.566;6.776;2023-09-07T17:01:04;101393.16;;;26.22;71.60
9325;BME280;4701;51.566;6.776;2023-09-07T17:06:06;101391.13;;;26.19;71.64
9325;BME280;4701;51.566;6.776;2023-09-07T17:11:09;101393.78;;;26.16;71.63
9325;BME280;4701;51.566;6.776;2023-09-07T17:16:11;101401.25;;;26.12;71.53
9325;BME280;4701;51.566;6.776;2023-09-07T17:21:12;101396.38;;;26.09;71.83
9325;BME280;4701;51.566;6.776;2023-09-07T17:26:16;101395.47;;;26.05;72.34
9325;BME280;4701;51.566;6.776;2023-09-07T17:31:21;101397.34;;;26.00;72.25
9325;BME280;4701;51.566;6.776;2023-09-07T17:36:24;101398.06;;;25.97;72.47
9325;BME280;4701;51.566;6.776;2023-09-07T17:41:29;101399.94;;;25.93;72.33
9325;BME280;4701;51.566;6.776;2023-09-07T17:46:33;101404.59;;;25.89;72.17
9325;BME280;4701;51.566;6.776;2023-09-07T17:51:34;101410.09;;;25.86;72.21
9325;BME280;4701;51.566;6.776;2023-09-07T17:56:38;101414.75;;;25.82;72.70
9325;BME280;4701;51.566;6.776;2023-09-07T18:01:40;101414.63;;;25.78;72.77
9325;BME280;4701;51.566;6.776;2023-09-07T18:06:44;101427.22;;;25.72;72.70
9325;BME280;4701;51.566;6.776;2023-09-07T18:11:47;101431.44;;;25.66;72.58
9325;BME280;4701;51.566;6.776;2023-09-07T18:16:49;101431.66;;;25.61;72.79
9325;BME280;4701;51.566;6.776;2023-09-07T18:21:51;101426.66;;;25.54;72.98
9325;BME280;4701;51.566;6.776;2023-09-07T18:26:54;101426.78;;;25.46;72.89
9325;BME280;4701;51.566;6.776;2023-09-07T18:31:56;101435.75;;;25.39;73.33
9325;BME280;4701;51.566;6.776;2023-09-07T18:36:58;101438.66;;;25.31;73.35
9325;BME280;4701;51.566;6.776;2023-09-07T18:42:01;101447.13;;;25.22;73.44
9325;BME280;4701;51.566;6.776;2023-09-07T18:47:03;101447.72;;;25.15;73.74
9325;BME280;4701;51.566;6.776;2023-09-07T18:52:05;101450.63;;;25.07;73.72
9325;BME280;4701;51.566;6.776;2023-09-07T18:57:08;101452.72;;;24.98;74.24
9325;BME280;4701;51.566;6.776;2023-09-07T19:02:10;101450.81;;;24.89;74.66
9325;BME280;4701;51.566;6.776;2023-09-07T19:07:13;101440.56;;;24.81;74.96
9325;BME280;4701;51.566;6.776;2023-09-07T19:12:21;101447.88;;;24.74;75.19
9325;BME280;4701;51.566;6.776;2023-09-07T19:17:23;101446.00;;;24.66;75.37
9325;BME280;4701;51.566;6.776;2023-09-07T19:22:24;101443.31;;;24.57;75.30
9325;BME280;4701;51.566;6.776;2023-09-07T19:27:27;101453.41;;;24.49;75.54
9325;BME280;4701;51.566;6.776;2023-09-07T19:32:29;101454.63;;;24.40;75.50
9325;BME280;4701;51.566;6.776;2023-09-07T19:37:31;101463.06;;;24.31;75.65
9325;BME280;4701;51.566;6.776;2023-09-07T19:42:34;101466.28;;;24.21;75.56
9325;BME280;4701;51.566;6.776;2023-09-07T19:47:36;101462.72;;;24.12;75.74
9325;BME280;4701;51.566;6.776;2023-09-07T19:52:37;101460.34;;;24.02;75.75
9325;BME280;4701;51.566;6.776;2023-09-07T19:57:40;101470.72;;;23.93;75.93
9325;BME280;4701;51.566;6.776;2023-09-07T20:02:43;101471.13;;;23.83;75.91
9325;BME280;4701;51.566;6.776;2023-09-07T20:07:45;101468.75;;;23.72;75.97
9325;BME280;4701;51.566;6.776;2023-09-07T20:12:51;101466.03;;;23.64;75.97
9325;BME280;4701;51.566;6.776;2023-09-07T20:17:53;101466.09;;;23.55;76.14
9325;BME280;4701;51.566;6.776;2023-09-07T20:22:54;101468.53;;;23.48;76.02
9325;BME280;4701;51.566;6.776;2023-09-07T20:27:57;101464.19;;;23.38;76.04
